Amboy, IN

11:21 AM EST on February 10, 2016 (GMT -0500)
Vincent Farms - Amboy, IN | | Change Station
CLOSE
Current Station
Personal Weather Station
Location: Amboy, IN
Elevation: 833 ft
Nearby Weather Stations

Elev 833 ft 40.59 °N, 85.98 °W | Updated 6 minutes ago

Partly Cloudy
Partly Cloudy
12.8 °F
Feels Like -4 °F
N
17.0
Wind Variable Wind from North
Gusts 20.0 mph

Today
High -- | Low -- °F
--% Chance of Precip.
Yesterday
High -- | Low -- °F
Precip. -- in
Pressure 30.01 in
Visibility 9.0 miles
Clouds Few 1900 ft
Scattered Clouds 2500 ft
Overcast 3300 ft
Windchill -4 °F
Dew Point 8 °F
Humidity 80%
Rainfall 0.00 in
Snow Depth Not available.
7:44 AM 6:12 PM
Waxing Crescent, 6% visible
METAR KOKK 101615Z AUTO 28018KT 9SM FEW019 SCT025 OVC033 M11/M16 A3001 RMK AO1
Pressure 30.01 in
Visibility 9.0 miles
Clouds Few 1900 ft
Scattered Clouds 2500 ft
Overcast 3300 ft
Windchill -4 °F
Dew Point 8 °F
Humidity 80%
Rainfall 0.00 in
Snow Depth Not available.
7:44 AM 6:12 PM
Waxing Crescent, 6% visible
METAR KOKK 101615Z AUTO 28018KT 9SM FEW019 SCT025 OVC033 M11/M16 A3001 RMK AO1

10-Day Weather Forecast

Almanac

Astronomy

Feb. 10, 2016 Rise Set
Actual Time
Civil Twilight
Nautical Twilight
Astronomical Twilight
Moon
Length of Visible Light
Length of Day
Tomorrow will be .
, % of the Moon is Illuminated

Today's Extremes

State Highs State Lows

Community

WunderPhotos

Upload Photos

1,891,881 photos uploaded!

WunderBlog® & News

Nearby

Air Quality

  Air Quality AQ Index Pollutant
Not available.

Snow Depth

Station Depth Elevation

Earthquake Activity

City Distance Mag. Time & Date
Minimum magnitude displayed is 2.5.

Coastal Water Temperatures

Place Temperature

Stations

Nearby Weather Stations

Station Location Temp. Windchill Dew Point Humidity Wind Precip. Elev Updated Type
                   

Watches & Warnings

There are currently no watches in effect.